createdAt,value
2019-05-28T00:01:03.864Z,99730.30
2019-05-28T00:03:32.264Z,99731.57
2019-05-28T00:06:00.675Z,99729.30
2019-05-28T00:08:29.097Z,99718.86
2019-05-28T00:10:57.599Z,99720.47
2019-05-28T00:13:26.055Z,99715.34
2019-05-28T00:15:54.459Z,99715.34
2019-05-28T00:18:22.863Z,99713.69
2019-05-28T00:20:51.313Z,99711.25
2019-05-28T00:23:19.711Z,99713.84
2019-05-28T00:25:48.110Z,99709.22
2019-05-28T00:28:16.511Z,99704.02
2019-05-28T00:30:44.932Z,99704.23
2019-05-28T00:33:13.341Z,99702.88
2019-05-28T00:35:41.742Z,99703.84
2019-05-28T00:38:10.156Z,99700.91
2019-05-28T00:40:38.563Z,99697.16
2019-05-28T00:43:06.979Z,99701.20
2019-05-28T00:45:35.395Z,99703.99
2019-05-28T00:48:03.803Z,99700.52
2019-05-28T00:50:32.200Z,99703.44
2019-05-28T00:53:00.634Z,99708.19
2019-05-28T00:55:29.045Z,99708.98
2019-05-28T00:57:58.579Z,99708.91
2019-05-28T01:00:44.766Z,99710.86
2019-05-28T01:03:13.151Z,99712.41
2019-05-28T01:05:41.561Z,99708.31
2019-05-28T01:08:10.058Z,99707.36
2019-05-28T01:10:38.465Z,99705.75
2019-05-28T01:13:07.395Z,99706.87
2019-05-28T01:15:35.824Z,99710.14
2019-05-28T01:18:04.565Z,99698.48
2019-05-28T01:20:32.963Z,99698.56
2019-05-28T01:23:01.355Z,99698.20
2019-05-28T01:25:29.765Z,99695.25
2019-05-28T01:27:58.166Z,99695.63
2019-05-28T01:30:26.571Z,99695.13
2019-05-28T01:32:54.982Z,99689.06
2019-05-28T01:35:23.384Z,99685.62
2019-05-28T01:37:51.779Z,99688.06
2019-05-28T01:40:23.120Z,99689.14
2019-05-28T01:42:50.466Z,99696.60
2019-05-28T01:45:20.420Z,99692.75
2019-05-28T01:47:48.890Z,99691.73
2019-05-28T01:50:17.548Z,99695.04
2019-05-28T01:52:45.996Z,99694.27
2019-05-28T01:55:14.541Z,99690.08
2019-05-28T01:57:42.936Z,99694.83
2019-05-28T02:00:11.680Z,99697.33
2019-05-28T02:02:40.084Z,99693.66
2019-05-28T02:05:09.338Z,99684.59
2019-05-28T02:07:37.739Z,99689.98
2019-05-28T02:10:06.980Z,99694.86
2019-05-28T02:12:35.377Z,99696.30
2019-05-28T02:15:05.352Z,99691.95
2019-05-28T02:17:33.767Z,99702.38
2019-05-28T02:20:02.191Z,99690.54
2019-05-28T02:22:30.590Z,99683.94
2019-05-28T02:24:58.992Z,99687.91
2019-05-28T02:27:27.397Z,99689.54
2019-05-28T02:29:55.793Z,99691.44
2019-05-28T02:32:24.201Z,99687.29
2019-05-28T02:34:52.602Z,99674.21
2019-05-28T02:37:21.011Z,99683.19
2019-05-28T02:39:49.503Z,99680.97
2019-05-28T02:42:17.903Z,99687.74
2019-05-28T02:44:46.301Z,99691.19
2019-05-28T02:47:14.954Z,99684.95
2019-05-28T02:49:43.349Z,99687.75
2019-05-28T02:52:12.829Z,99688.87
2019-05-28T02:54:41.294Z,99691.41
2019-05-28T02:57:10.382Z,99694.14
2019-05-28T02:59:39.397Z,99697.02
2019-05-28T03:02:07.816Z,99694.34
2019-05-28T03:04:38.508Z,99699.40
2019-05-28T03:07:08.901Z,99701.75
2019-05-28T03:09:40.777Z,99699.28
2019-05-28T03:12:09.185Z,99703.97
2019-05-28T03:14:37.592Z,99705.52
2019-05-28T03:17:07.345Z,99706.58
2019-05-28T03:19:38.271Z,99710.97
2019-05-28T03:22:08.818Z,99707.52
2019-05-28T03:24:38.243Z,99715.42
2019-05-28T03:27:06.727Z,99714.59
2019-05-28T03:29:35.125Z,99719.51
2019-05-28T03:32:07.864Z,99713.53
2019-05-28T03:34:33.642Z,99716.52
2019-05-28T03:37:02.623Z,99719.51
2019-05-28T03:39:31.748Z,99716.20
2019-05-28T03:42:00.146Z,99720.36
2019-05-28T03:44:28.547Z,99723.06
2019-05-28T03:46:57.182Z,99721.96
2019-05-28T03:49:25.584Z,99718.58
2019-05-28T03:51:53.987Z,99725.94
2019-05-28T03:54:22.385Z,99727.31
2019-05-28T03:56:50.793Z,99727.19
2019-05-28T03:59:19.194Z,99724.77
2019-05-28T04:01:47.597Z,99727.23
2019-05-28T04:04:16.001Z,99729.23
2019-05-28T04:06:44.563Z,99723.42
2019-05-28T04:09:12.973Z,99722.80
2019-05-28T04:11:45.126Z,99725.23
2019-05-28T04:14:11.493Z,99726.38
2019-05-28T04:16:39.896Z,99732.24
2019-05-28T04:19:08.303Z,99727.65
2019-05-28T04:21:36.698Z,99725.39
2019-05-28T04:24:05.184Z,99726.16
2019-05-28T04:26:33.758Z,99726.32
2019-05-28T04:29:02.207Z,99728.81
2019-05-28T04:31:30.608Z,99732.45
2019-05-28T04:33:59.018Z,99735.33
2019-05-28T04:36:27.418Z,99738.88
2019-05-28T04:38:55.823Z,99737.17
2019-05-28T04:41:24.222Z,99743.93
2019-05-28T04:43:52.734Z,99740.83
2019-05-28T04:46:21.125Z,99743.56
2019-05-28T04:48:49.542Z,99750.55
2019-05-28T04:51:17.957Z,99749.57
2019-05-28T04:53:46.352Z,99744.34
2019-05-28T04:56:14.798Z,99744.80
2019-05-28T04:58:43.161Z,99751.23
2019-05-28T05:01:11.569Z,99749.91
2019-05-28T05:03:40.047Z,99743.67
2019-05-28T05:06:08.536Z,99751.16
2019-05-28T05:08:36.958Z,99756.34
2019-05-28T05:11:05.394Z,99755.68
2019-05-28T05:13:33.796Z,99755.05
2019-05-28T05:16:02.199Z,99761.78
2019-05-28T05:18:30.633Z,99765.44
2019-05-28T05:20:59.009Z,99769.67
2019-05-28T05:23:27.428Z,99767.38
2019-05-28T05:25:55.815Z,99773.22
2019-05-28T05:28:24.230Z,99769.86
2019-05-28T05:30:52.629Z,99765.76
2019-05-28T05:33:21.100Z,99765.36
2019-05-28T05:35:49.438Z,99771.95
2019-05-28T05:38:17.854Z,99771.80
2019-05-28T05:40:46.270Z,99769.01
2019-05-28T05:43:14.658Z,99776.06
2019-05-28T05:45:43.050Z,99771.17
2019-05-28T05:48:11.465Z,99771.70
2019-05-28T05:50:39.863Z,99775.65
2019-05-28T05:53:08.271Z,99776.77
2019-05-28T05:55:36.662Z,99775.86
2019-05-28T05:58:05.066Z,99777.40
2019-05-28T06:00:33.470Z,99775.38
2019-05-28T06:03:01.905Z,99775.47
2019-05-28T06:05:30.260Z,99768.74
2019-05-28T06:07:58.689Z,99771.96
2019-05-28T06:10:27.100Z,99774.52
2019-05-28T06:12:55.734Z,99784.17
2019-05-28T06:15:24.215Z,99778.11
2019-05-28T06:17:52.604Z,99781.20
2019-05-28T06:20:21.076Z,99788.59
2019-05-28T06:22:49.479Z,99788.76
2019-05-28T06:25:18.055Z,99801.55
2019-05-28T06:27:46.443Z,99801.83
2019-05-28T06:30:14.990Z,99798.74
2019-05-28T06:32:43.399Z,99792.74
2019-05-28T06:35:12.043Z,99795.06
2019-05-28T06:37:40.905Z,99798.70
2019-05-28T06:40:09.641Z,99794.72
2019-05-28T06:42:39.652Z,99795.23
2019-05-28T06:45:08.418Z,99794.63
2019-05-28T06:47:36.803Z,99806.95
2019-05-28T06:50:12.627Z,99807.78
2019-05-28T06:52:41.241Z,99807.28
2019-05-28T06:55:10.243Z,99811.94
2019-05-28T06:57:38.629Z,99803.86
2019-05-28T07:00:08.104Z,99809.09
2019-05-28T07:02:37.432Z,99802.16
2019-05-28T07:05:07.546Z,99810.60
2019-05-28T07:07:35.941Z,99807.70
2019-05-28T07:10:05.913Z,99810.09
2019-05-28T07:12:34.297Z,99799.98
2019-05-28T07:15:02.763Z,99797.94
2019-05-28T07:17:31.190Z,99788.31
2019-05-28T07:19:59.603Z,99790.72
2019-05-28T07:22:28.089Z,99796.28
2019-05-28T07:24:56.481Z,99799.86
2019-05-28T07:27:24.869Z,99807.96
2019-05-28T07:29:53.272Z,99812.20
2019-05-28T07:32:21.672Z,99817.42
2019-05-28T07:34:50.079Z,99811.33
2019-05-28T07:37:18.528Z,99821.22
2019-05-28T07:39:46.887Z,99821.09
2019-05-28T07:42:29.826Z,99817.61
2019-05-28T07:44:45.412Z,99823.91
2019-05-28T07:47:13.822Z,99822.59
2019-05-28T07:49:42.216Z,99822.20
2019-05-28T07:52:10.610Z,99832.36
2019-05-28T07:54:39.628Z,99823.44
2019-05-28T07:57:08.094Z,99825.50
2019-05-28T07:59:36.494Z,99827.81
2019-05-28T08:02:04.892Z,99824.28
2019-05-28T08:04:46.254Z,99820.30
2019-05-28T08:07:03.657Z,99821.66
2019-05-28T08:09:32.059Z,99819.09
2019-05-28T08:12:00.519Z,99819.63
2019-05-28T08:14:28.925Z,99817.89
2019-05-28T08:16:57.316Z,99815.80
2019-05-28T08:19:25.727Z,99823.37
2019-05-28T08:21:54.129Z,99818.09
2019-05-28T08:24:23.107Z,99827.48
2019-05-28T08:26:51.599Z,99828.48
2019-05-28T08:29:19.997Z,99832.77
2019-05-28T08:31:48.487Z,99834.46
2019-05-28T08:34:19.386Z,99829.83
2019-05-28T08:37:04.121Z,99839.08
2019-05-28T08:39:17.215Z,99830.64
2019-05-28T08:41:45.620Z,99834.06
2019-05-28T08:44:14.014Z,99826.52
2019-05-28T08:46:42.427Z,99823.12
2019-05-28T08:49:11.022Z,99833.70
2019-05-28T08:51:39.521Z,99841.40
2019-05-28T08:54:08.089Z,99836.94
2019-05-28T08:56:36.587Z,99837.02
2019-05-28T08:59:05.152Z,99840.34
2019-05-28T09:01:33.660Z,99842.31
2019-05-28T09:04:02.051Z,99841.75
2019-05-28T09:06:30.451Z,99835.98
2019-05-28T09:08:58.855Z,99835.72
2019-05-28T09:11:27.238Z,99836.14
2019-05-28T09:13:55.639Z,99832.49
2019-05-28T09:16:24.040Z,99841.39
2019-05-28T09:18:52.437Z,99834.78
2019-05-28T09:21:21.089Z,99833.76
2019-05-28T09:23:49.502Z,99837.22
2019-05-28T09:26:17.903Z,99830.88
2019-05-28T09:28:46.410Z,99828.55
2019-05-28T09:31:14.791Z,99832.17
2019-05-28T09:33:43.194Z,99833.59
2019-05-28T09:36:12.089Z,99831.20
2019-05-28T09:38:40.524Z,99835.00
2019-05-28T09:41:08.931Z,99839.06
2019-05-28T09:43:37.330Z,99846.70
2019-05-28T09:46:05.759Z,99846.40
2019-05-28T09:48:34.172Z,99837.61
2019-05-28T09:51:02.556Z,99842.61
2019-05-28T09:53:31.046Z,99839.48
2019-05-28T09:55:59.542Z,99842.02
2019-05-28T09:58:27.952Z,99846.46
2019-05-28T10:00:58.958Z,99851.99
2019-05-28T10:03:26.745Z,99850.95
2019-05-28T10:06:07.019Z,99849.70
2019-05-28T10:08:25.280Z,99847.63
2019-05-28T10:10:53.700Z,99850.87
2019-05-28T10:13:37.155Z,99860.22
2019-05-28T10:15:52.238Z,99861.96
2019-05-28T10:18:20.651Z,99863.50
2019-05-28T10:20:49.057Z,99859.92
2019-05-28T10:23:17.449Z,99868.12
2019-05-28T10:25:45.926Z,99863.17
2019-05-28T10:28:14.404Z,99861.64
2019-05-28T10:30:42.816Z,99861.95
2019-05-28T10:33:11.244Z,99868.47
2019-05-28T10:35:39.655Z,99868.14
2019-05-28T10:38:14.525Z,99869.61
2019-05-28T10:40:38.187Z,99869.67
2019-05-28T10:43:06.579Z,99873.56
2019-05-28T10:45:34.980Z,99877.69
2019-05-28T10:48:03.385Z,99880.55
2019-05-28T10:50:31.781Z,99877.77
2019-05-28T10:53:00.186Z,99875.55
2019-05-28T10:55:28.576Z,99877.61
2019-05-28T10:57:56.978Z,99878.67
2019-05-28T11:00:25.680Z,99887.66
2019-05-28T11:02:54.092Z,99885.26
2019-05-28T11:05:22.924Z,99890.83
2019-05-28T11:07:51.335Z,99891.56
2019-05-28T11:10:24.231Z,99887.97
2019-05-28T11:12:50.038Z,99889.44
2019-05-28T11:15:23.598Z,99887.61
2019-05-28T11:17:50.126Z,99890.09
2019-05-28T11:20:20.760Z,99890.98
2019-05-28T11:22:49.196Z,99898.45
2019-05-28T11:25:19.428Z,99897.47
2019-05-28T11:27:47.829Z,99898.72
2019-05-28T11:30:17.596Z,99896.71
2019-05-28T11:32:46.593Z,99895.13
2019-05-28T11:35:17.219Z,99897.02
2019-05-28T11:37:45.775Z,99897.91
2019-05-28T11:40:16.303Z,99894.34
2019-05-28T11:42:44.716Z,99896.05
2019-05-28T11:45:16.053Z,99896.83
2019-05-28T11:47:45.055Z,99900.92
2019-05-28T11:50:13.788Z,99896.90
2019-05-28T11:52:42.212Z,99902.25
2019-05-28T11:55:15.826Z,99903.94
2019-05-28T11:57:44.234Z,99904.69
2019-05-28T12:00:14.863Z,99904.38
2019-05-28T12:02:43.317Z,99910.36
2019-05-28T12:05:14.294Z,99902.37
2019-05-28T12:07:42.669Z,99909.05
2019-05-28T12:10:11.931Z,99905.06
2019-05-28T12:12:40.341Z,99902.83
2019-05-28T12:15:11.183Z,99903.63
2019-05-28T12:17:43.767Z,99899.95
2019-05-28T12:20:11.165Z,99901.55
2019-05-28T12:22:39.958Z,99901.13
2019-05-28T12:25:10.890Z,99896.95
2019-05-28T12:27:39.293Z,99905.95
2019-05-28T12:30:09.529Z,99902.14
2019-05-28T12:32:37.995Z,99903.86
2019-05-28T12:35:23.855Z,99900.16
2019-05-28T12:37:47.805Z,99905.88
2019-05-28T12:40:09.819Z,99910.27
2019-05-28T12:42:38.294Z,99902.92
2019-05-28T12:45:10.757Z,99904.59
2019-05-28T12:47:39.136Z,99905.45
2019-05-28T12:50:18.931Z,99910.05
2019-05-28T12:52:38.370Z,99907.13
2019-05-28T12:55:07.398Z,99916.73
2019-05-28T12:57:35.867Z,99917.58
2019-05-28T13:00:08.338Z,99918.59
2019-05-28T13:02:36.817Z,99923.34
2019-05-28T13:05:14.051Z,99925.33
2019-05-28T13:07:42.506Z,99924.94
2019-05-28T13:10:12.426Z,99927.52
2019-05-28T13:12:40.822Z,99922.48
2019-05-28T13:15:12.060Z,99934.83
2019-05-28T13:17:40.486Z,99934.59
2019-05-28T13:20:09.607Z,99923.44
2019-05-28T13:22:38.238Z,99924.16
2019-05-28T13:25:07.624Z,99927.50
2019-05-28T13:27:36.052Z,99930.74
2019-05-28T13:30:08.132Z,99938.23
2019-05-28T13:32:36.646Z,99926.92
2019-05-28T13:35:08.082Z,99932.77
2019-05-28T13:37:36.509Z,99935.77
2019-05-28T13:40:06.875Z,99930.63
2019-05-28T13:42:35.253Z,99938.72
2019-05-28T13:45:05.421Z,99945.05
2019-05-28T13:47:34.417Z,99947.83
2019-05-28T13:50:03.598Z,99950.44
2019-05-28T13:52:31.991Z,99963.41
2019-05-28T13:55:00.401Z,99962.54
2019-05-28T13:57:28.798Z,99970.30
2019-05-28T13:59:58.480Z,99960.06
2019-05-28T14:02:27.328Z,99964.29
2019-05-28T14:04:55.738Z,99964.88
2019-05-28T14:07:24.132Z,99964.51
2019-05-28T14:09:52.534Z,99963.69
2019-05-28T14:12:21.002Z,99966.88
2019-05-28T14:14:49.411Z,99968.48
2019-05-28T14:17:17.865Z,99976.69
2019-05-28T14:19:46.274Z,99970.09
2019-05-28T14:22:32.694Z,99980.14
2019-05-28T14:24:44.842Z,99969.87
2019-05-28T14:27:13.271Z,99976.93
2019-05-28T14:29:41.677Z,99968.69
2019-05-28T14:32:10.077Z,99972.87
2019-05-28T14:34:38.485Z,99972.52
2019-05-28T14:37:06.954Z,99985.19
2019-05-28T14:39:41.097Z,99981.43
2019-05-28T14:42:05.653Z,99989.27
2019-05-28T14:44:34.064Z,99991.61
2019-05-28T14:47:02.500Z,99993.62
2019-05-28T14:49:30.907Z,99999.68
2019-05-28T14:51:59.318Z,100003.54
2019-05-28T14:54:27.734Z,100007.41
2019-05-28T14:56:56.134Z,100010.23
2019-05-28T14:59:24.546Z,100017.08
2019-05-28T15:01:52.947Z,100006.92
2019-05-28T15:04:21.364Z,100012.75
2019-05-28T15:06:49.785Z,100010.09
2019-05-28T15:09:21.333Z,100023.47
2019-05-28T15:11:48.305Z,100030.17
2019-05-28T15:14:16.716Z,100036.89
2019-05-28T15:16:45.115Z,100034.49
2019-05-28T15:19:13.524Z,100037.65
2019-05-28T15:21:41.934Z,100040.50
2019-05-28T15:24:10.342Z,100049.03
2019-05-28T15:26:38.772Z,100037.50
2019-05-28T15:29:07.166Z,100039.49
2019-05-28T15:31:35.580Z,100043.19
2019-05-28T15:34:03.981Z,100041.68
2019-05-28T15:36:32.372Z,100051.58
2019-05-28T15:39:00.781Z,100057.54
2019-05-28T15:41:29.173Z,100062.95
2019-05-28T15:43:57.575Z,100063.66
2019-05-28T15:46:25.979Z,100065.66
2019-05-28T15:48:54.389Z,100068.48
2019-05-28T15:51:22.785Z,100068.44
2019-05-28T15:53:51.188Z,100067.98
2019-05-28T15:56:19.600Z,100069.64
2019-05-28T15:58:48.004Z,100072.14
2019-05-28T16:01:16.481Z,100067.98
2019-05-28T16:03:44.883Z,100073.53
2019-05-28T16:06:13.292Z,100070.97
2019-05-28T16:08:41.704Z,100069.38
2019-05-28T16:11:10.113Z,100063.55
2019-05-28T16:13:38.534Z,100070.60
2019-05-28T16:16:07.925Z,100073.72
2019-05-28T16:18:36.414Z,100072.50
2019-05-28T16:21:04.895Z,100081.37
2019-05-28T16:23:33.288Z,100077.22
2019-05-28T16:26:01.695Z,100077.47
2019-05-28T16:28:30.101Z,100071.41
2019-05-28T16:31:12.016Z,100081.77
2019-05-28T16:33:28.683Z,100084.09
2019-05-28T16:35:57.091Z,100088.49
2019-05-28T16:38:25.491Z,100092.44
2019-05-28T16:40:53.901Z,100106.02
2019-05-28T16:43:22.319Z,100109.99
2019-05-28T16:45:50.730Z,100108.56
2019-05-28T16:48:19.128Z,100111.65
2019-05-28T16:50:47.544Z,100108.88
2019-05-28T16:53:15.936Z,100114.19
2019-05-28T16:55:44.404Z,100111.91
2019-05-28T16:58:12.812Z,100110.52
2019-05-28T17:00:41.226Z,100117.83
2019-05-28T17:03:09.677Z,100122.02
2019-05-28T17:05:38.053Z,100126.63
2019-05-28T17:08:06.468Z,100123.78
2019-05-28T17:10:34.882Z,100134.13
2019-05-28T17:13:03.366Z,100134.88
2019-05-28T17:15:31.768Z,100127.14
2019-05-28T17:18:00.175Z,100136.63
2019-05-28T17:20:28.613Z,100141.77
2019-05-28T17:22:57.003Z,100143.96
2019-05-28T17:25:25.404Z,100147.96
2019-05-28T17:27:54.070Z,100154.06
2019-05-28T17:30:24.229Z,100153.86
2019-05-28T17:32:52.726Z,100150.86
2019-05-28T17:35:21.141Z,100163.62
2019-05-28T17:37:49.547Z,100170.65
2019-05-28T17:40:21.646Z,100169.78
2019-05-28T17:42:48.236Z,100172.31
2019-05-28T17:45:17.216Z,100169.50
2019-05-28T17:47:45.661Z,100181.84
2019-05-28T17:50:15.728Z,100187.79
2019-05-28T17:52:44.554Z,100192.70
2019-05-28T17:55:13.038Z,100207.13
2019-05-28T17:57:41.438Z,100202.75
2019-05-28T18:00:10.888Z,100210.92
2019-05-28T18:02:39.290Z,100219.59
2019-05-28T18:05:07.952Z,100224.34
2019-05-28T18:07:36.343Z,100227.77
2019-05-28T18:10:10.827Z,100230.55
2019-05-28T18:12:39.289Z,100236.64
2019-05-28T18:15:09.432Z,100238.36
2019-05-28T18:17:37.925Z,100244.67
2019-05-28T18:20:08.053Z,100240.91
2019-05-28T18:22:36.603Z,100247.55
2019-05-28T18:25:06.554Z,100254.42
2019-05-28T18:27:34.962Z,100256.43
2019-05-28T18:30:05.646Z,100263.38
2019-05-28T18:32:34.062Z,100262.30
2019-05-28T18:35:02.647Z,100274.44
2019-05-28T18:37:31.146Z,100280.44
2019-05-28T18:39:59.542Z,100288.34
2019-05-28T18:42:27.961Z,100287.01
2019-05-28T18:44:56.355Z,100292.93
2019-05-28T18:47:24.774Z,100288.19
2019-05-28T18:49:56.815Z,100302.46
2019-05-28T18:52:23.305Z,100301.08
2019-05-28T18:54:51.704Z,100296.95
2019-05-28T18:57:20.197Z,100313.74
2019-05-28T18:59:48.595Z,100309.42
2019-05-28T19:02:17.010Z,100317.41
2019-05-28T19:04:45.407Z,100320.91
2019-05-28T19:07:13.836Z,100322.39
2019-05-28T19:09:42.283Z,100326.97
2019-05-28T19:12:10.711Z,100331.31
2019-05-28T19:14:39.158Z,100336.84
2019-05-28T19:17:07.659Z,100348.80
2019-05-28T19:19:36.063Z,100345.41
2019-05-28T19:22:04.608Z,100356.13
2019-05-28T19:24:33.032Z,100355.53
2019-05-28T19:27:01.609Z,100357.12
2019-05-28T19:29:30.048Z,100357.32
2019-05-28T19:31:58.634Z,100361.79
2019-05-28T19:34:27.471Z,100368.31
2019-05-28T19:36:56.583Z,100372.65
2019-05-28T19:39:25.468Z,100379.73
2019-05-28T19:41:54.829Z,100386.84
2019-05-28T19:44:23.274Z,100388.13
2019-05-28T19:46:51.971Z,100390.29
2019-05-28T19:49:20.364Z,100396.52
2019-05-28T19:51:48.785Z,100401.57
2019-05-28T19:54:17.188Z,100407.59
2019-05-28T19:56:45.598Z,100411.59
2019-05-28T19:59:14.000Z,100416.77
2019-05-28T20:01:42.406Z,100422.76
2019-05-28T20:04:10.804Z,100420.09
2019-05-28T20:06:39.223Z,100424.37
2019-05-28T20:09:08.762Z,100424.41
2019-05-28T20:11:37.454Z,100429.70
2019-05-28T20:14:05.906Z,100444.52
2019-05-28T20:16:34.256Z,100443.48
2019-05-28T20:19:02.656Z,100443.27
2019-05-28T20:21:31.060Z,100443.42
2019-05-28T20:23:59.465Z,100446.73
2019-05-28T20:26:27.960Z,100450.17
2019-05-28T20:29:07.963Z,100458.42
2019-05-28T20:31:26.571Z,100462.86
2019-05-28T20:33:54.982Z,100461.92
2019-05-28T20:36:23.381Z,100475.42
2019-05-28T20:38:51.794Z,100471.91
2019-05-28T20:41:20.201Z,100480.45
2019-05-28T20:43:48.602Z,100481.74
2019-05-28T20:46:17.011Z,100481.26
2019-05-28T20:48:45.424Z,100483.94
2019-05-28T20:51:21.658Z,100486.67
2019-05-28T20:53:43.977Z,100487.24
2019-05-28T20:56:12.396Z,100495.00
2019-05-28T20:58:40.888Z,100505.47
2019-05-28T21:01:09.287Z,100502.56
2019-05-28T21:03:37.693Z,100509.48
2019-05-28T21:06:06.104Z,100514.25
2019-05-28T21:08:34.516Z,100514.52
2019-05-28T21:11:02.965Z,100519.97
2019-05-28T21:13:31.362Z,100522.80
2019-05-28T21:15:59.763Z,100530.81
2019-05-28T21:18:28.161Z,100540.39
2019-05-28T21:20:57.573Z,100533.78
2019-05-28T21:23:26.003Z,100540.21
2019-05-28T21:25:54.420Z,100537.97
2019-05-28T21:28:25.731Z,100539.02
2019-05-28T21:30:52.955Z,100544.97
2019-05-28T21:33:21.362Z,100548.18
2019-05-28T21:35:50.790Z,100548.36
2019-05-28T21:38:19.257Z,100550.16
2019-05-28T21:40:47.686Z,100557.31
2019-05-28T21:43:16.084Z,100560.18
2019-05-28T21:45:44.487Z,100564.66
2019-05-28T21:48:12.895Z,100577.23
2019-05-28T21:50:41.338Z,100573.56
2019-05-28T21:53:09.751Z,100575.08
2019-05-28T21:55:38.147Z,100574.12
2019-05-28T21:58:06.566Z,100578.84
2019-05-28T22:00:48.387Z,100587.13
2019-05-28T22:03:17.073Z,100579.14
2019-05-28T22:05:45.470Z,100584.91
2019-05-28T22:08:13.881Z,100586.63
2019-05-28T22:10:42.295Z,100586.63
2019-05-28T22:13:21.531Z,100589.16
2019-05-28T22:15:40.891Z,100591.23
2019-05-28T22:18:09.302Z,100598.80
2019-05-28T22:20:37.717Z,100601.88
2019-05-28T22:23:06.140Z,100609.23
2019-05-28T22:25:34.524Z,100603.39
2019-05-28T22:28:02.940Z,100610.25
2019-05-28T22:30:31.517Z,100604.88
2019-05-28T22:33:00.108Z,100616.92
2019-05-28T22:35:28.518Z,100611.28
2019-05-28T22:37:57.158Z,100613.55
2019-05-28T22:40:25.768Z,100620.50
2019-05-28T22:42:54.181Z,100619.92
2019-05-28T22:45:22.576Z,100625.03
2019-05-28T22:47:51.487Z,100634.46
2019-05-28T22:50:23.116Z,100634.09
2019-05-28T22:52:50.326Z,100636.17
2019-05-28T22:55:18.891Z,100633.82
2019-05-28T22:57:47.320Z,100637.12
2019-05-28T23:00:16.470Z,100640.80
2019-05-28T23:02:44.873Z,100649.38
2019-05-28T23:05:13.423Z,100647.58
2019-05-28T23:07:41.814Z,100654.55
2019-05-28T23:10:11.352Z,100659.55
2019-05-28T23:12:39.750Z,100654.44
2019-05-28T23:15:10.466Z,100648.67
2019-05-28T23:17:39.054Z,100659.88
2019-05-28T23:20:11.477Z,100657.52
2019-05-28T23:22:39.881Z,100664.39
2019-05-28T23:25:10.037Z,100662.39
2019-05-28T23:27:38.434Z,100667.74
2019-05-28T23:30:21.541Z,100669.80
2019-05-28T23:32:37.965Z,100670.27
2019-05-28T23:35:08.958Z,100672.41
2019-05-28T23:37:37.381Z,100674.97
2019-05-28T23:40:07.137Z,100679.40
2019-05-28T23:42:35.507Z,100685.84
2019-05-28T23:45:05.596Z,100695.12
2019-05-28T23:47:34.053Z,100698.34
2019-05-28T23:50:02.455Z,100702.73
2019-05-28T23:52:30.860Z,100700.10
2019-05-28T23:54:59.258Z,100704.59
2019-05-28T23:57:27.659Z,100706.33
2019-05-28T23:59:56.108Z,100715.08
